createdAt,value
2023-01-05T00:01:35.485Z,9.40
2023-01-05T00:04:02.764Z,9.50
2023-01-05T00:06:29.855Z,9.50
2023-01-05T00:08:56.683Z,9.50
2023-01-05T00:11:43.967Z,9.50
2023-01-05T00:14:34.656Z,9.50
2023-01-05T00:17:20.345Z,9.50
2023-01-05T00:20:05.635Z,9.50
2023-01-05T00:22:34.986Z,9.50
2023-01-05T00:25:14.001Z,9.60
2023-01-05T00:27:42.213Z,9.60
2023-01-05T00:30:11.478Z,9.50
2023-01-05T00:32:38.792Z,9.50
2023-01-05T00:35:05.875Z,9.50
2023-01-05T00:37:34.709Z,9.50
2023-01-05T00:40:01.605Z,9.50
2023-01-05T00:42:28.510Z,9.50
2023-01-05T00:44:55.332Z,9.50
2023-01-05T00:47:22.166Z,9.50
2023-01-05T00:49:49.294Z,9.50
2023-01-05T00:52:16.319Z,9.40
2023-01-05T00:54:43.196Z,9.40
2023-01-05T00:57:14.023Z,9.40
2023-01-05T00:59:41.240Z,9.40
2023-01-05T01:02:08.308Z,9.40
2023-01-05T01:04:35.794Z,9.40
2023-01-05T01:07:03.447Z,9.40
2023-01-05T01:09:31.077Z,9.40
2023-01-05T01:11:58.594Z,9.40
2023-01-05T01:14:26.080Z,9.40
2023-01-05T01:16:52.995Z,9.40
2023-01-05T01:19:22.461Z,9.50
2023-01-05T01:21:49.483Z,9.50
2023-01-05T01:24:22.614Z,9.40
2023-01-05T01:26:49.723Z,9.30
2023-01-05T01:29:19.225Z,9.20
2023-01-05T01:31:48.505Z,9.20
2023-01-05T01:34:15.829Z,9.20
2023-01-05T01:36:43.139Z,9.20
2023-01-05T01:39:10.593Z,9.30
2023-01-05T01:41:37.533Z,9.30
2023-01-05T01:44:53.633Z,9.30
2023-01-05T01:47:32.552Z,9.20
2023-01-05T01:52:34.687Z,9.20
2023-01-05T01:55:04.057Z,9.20
2023-01-05T01:57:31.929Z,9.30
2023-01-05T02:00:02.496Z,9.30
2023-01-05T02:02:30.658Z,9.30
2023-01-05T02:05:02.908Z,9.30
2023-01-05T02:07:32.580Z,9.40
2023-01-05T02:09:59.876Z,9.30
2023-01-05T02:12:38.885Z,9.40
2023-01-05T02:15:49.897Z,9.40
2023-01-05T02:18:22.492Z,9.40
2023-01-05T02:21:04.385Z,9.40
2023-01-05T02:23:55.596Z,9.40
2023-01-05T02:26:44.314Z,9.40
2023-01-05T02:29:50.613Z,9.20
2023-01-05T02:32:27.445Z,9.20
2023-01-05T02:35:23.066Z,9.10
2023-01-05T02:38:40.769Z,9.00
2023-01-05T02:41:18.251Z,9.00
2023-01-05T02:43:45.777Z,9.00
2023-01-05T02:46:12.724Z,9.00
2023-01-05T02:48:42.222Z,9.00
2023-01-05T02:51:16.375Z,9.00
2023-01-05T02:54:18.435Z,9.00
2023-01-05T02:56:53.000Z,9.00
2023-01-05T02:59:31.025Z,9.00
2023-01-05T03:02:02.677Z,9.10
2023-01-05T03:04:41.711Z,9.10
2023-01-05T03:07:14.658Z,9.10
2023-01-05T03:09:44.917Z,9.10
2023-01-05T03:12:48.542Z,9.10
2023-01-05T03:15:30.067Z,9.10
2023-01-05T03:18:00.229Z,9.10
2023-01-05T03:20:30.059Z,9.10
2023-01-05T03:23:17.986Z,9.20
2023-01-05T03:26:04.835Z,9.20
2023-01-05T03:28:59.739Z,9.20
2023-01-05T03:31:54.852Z,9.20
2023-01-05T03:34:58.818Z,9.30
2023-01-05T03:37:37.735Z,9.30
2023-01-05T03:40:10.318Z,9.30
2023-01-05T03:42:38.155Z,9.40
2023-01-05T03:45:07.283Z,9.40
2023-01-05T03:47:34.109Z,9.50
2023-01-05T03:50:00.967Z,9.50
2023-01-05T03:52:27.779Z,9.50
2023-01-05T03:54:54.571Z,9.50
2023-01-05T03:57:21.339Z,9.60
2023-01-05T03:59:48.138Z,9.60
2023-01-05T04:02:15.046Z,9.60
2023-01-05T04:04:42.041Z,9.60
2023-01-05T04:07:08.947Z,9.60
2023-01-05T04:09:35.776Z,9.70
2023-01-05T04:12:02.604Z,9.70
2023-01-05T04:14:29.444Z,9.70
2023-01-05T04:16:56.262Z,9.70
2023-01-05T04:19:23.126Z,9.70
2023-01-05T04:21:49.949Z,9.70
2023-01-05T04:24:16.849Z,9.70
2023-01-05T04:26:43.689Z,9.70
2023-01-05T04:29:11.471Z,9.70
2023-01-05T04:31:38.309Z,9.70
2023-01-05T04:34:05.131Z,9.70
2023-01-05T04:36:31.918Z,9.70
2023-01-05T04:38:58.808Z,9.70
2023-01-05T04:41:25.652Z,9.70
2023-01-05T04:43:52.502Z,9.70
2023-01-05T04:46:19.340Z,9.70
2023-01-05T04:48:46.200Z,9.70
2023-01-05T04:51:12.975Z,9.70
2023-01-05T04:53:39.821Z,9.70
2023-01-05T04:56:06.920Z,9.80
2023-01-05T04:58:33.911Z,9.80
2023-01-05T05:01:00.790Z,9.80
2023-01-05T05:03:32.813Z,9.70
2023-01-05T05:06:00.308Z,9.80
2023-01-05T05:11:01.472Z,9.80
2023-01-05T05:13:28.573Z,9.80
2023-01-05T05:15:55.472Z,9.70
2023-01-05T05:18:22.498Z,9.80
2023-01-05T05:20:51.379Z,9.70
2023-01-05T05:23:18.494Z,9.70
2023-01-05T05:25:45.582Z,9.70
2023-01-05T05:28:12.432Z,9.70
2023-01-05T05:30:39.237Z,9.70
2023-01-05T05:33:06.290Z,9.70
2023-01-05T05:35:33.064Z,9.70
2023-01-05T05:38:01.393Z,9.70
2023-01-05T05:40:29.194Z,9.70
2023-01-05T05:42:55.989Z,9.70
2023-01-05T05:45:22.786Z,9.70
2023-01-05T05:47:49.639Z,9.70
2023-01-05T05:50:16.500Z,9.70
2023-01-05T05:52:43.322Z,9.70
2023-01-05T05:55:10.479Z,9.70
2023-01-05T05:57:37.318Z,9.70
2023-01-05T06:00:05.384Z,9.70
2023-01-05T06:02:32.324Z,9.70
2023-01-05T06:04:59.166Z,9.80
2023-01-05T06:07:25.989Z,9.80
2023-01-05T06:09:52.849Z,9.80
2023-01-05T06:12:19.882Z,9.70
2023-01-05T06:14:46.851Z,9.70
2023-01-05T06:17:13.662Z,9.70
2023-01-05T06:19:40.512Z,9.70
2023-01-05T06:22:07.429Z,9.70
2023-01-05T06:24:34.245Z,9.70
2023-01-05T06:27:01.066Z,9.70
2023-01-05T06:29:27.903Z,9.70
2023-01-05T06:31:55.033Z,9.70
2023-01-05T06:34:21.893Z,9.60
2023-01-05T06:36:48.812Z,9.70
2023-01-05T06:39:15.761Z,9.70
2023-01-05T06:41:42.568Z,9.70
2023-01-05T06:44:09.623Z,9.70
2023-01-05T06:46:36.498Z,9.70
2023-01-05T06:49:03.307Z,9.70
2023-01-05T06:51:30.170Z,9.70
2023-01-05T06:53:57.012Z,9.70
2023-01-05T06:56:23.908Z,9.60
2023-01-05T06:58:50.749Z,9.60
2023-01-05T07:01:17.703Z,9.60
2023-01-05T07:03:44.722Z,9.60
2023-01-05T07:06:15.060Z,9.50
2023-01-05T07:08:42.786Z,9.50
2023-01-05T07:11:09.655Z,9.60
2023-01-05T07:13:36.764Z,9.50
2023-01-05T07:16:03.662Z,9.50
2023-01-05T07:18:30.669Z,9.50
2023-01-05T07:21:00.520Z,9.50
2023-01-05T07:23:27.522Z,9.60
2023-01-05T07:25:54.450Z,9.60
2023-01-05T07:28:21.310Z,9.70
2023-01-05T07:30:52.554Z,9.70
2023-01-05T07:33:19.904Z,9.70
2023-01-05T07:35:46.718Z,9.70
2023-01-05T07:38:13.687Z,9.70
2023-01-05T07:40:40.528Z,9.70
2023-01-05T07:43:07.451Z,9.70
2023-01-05T07:45:34.343Z,9.80
2023-01-05T07:48:02.911Z,9.80
2023-01-05T07:50:30.067Z,9.80
2023-01-05T07:52:59.692Z,9.80
2023-01-05T07:55:26.507Z,9.80
2023-01-05T07:57:53.504Z,9.80
2023-01-05T08:00:20.519Z,9.80
2023-01-05T08:02:47.417Z,9.80
2023-01-05T08:05:14.281Z,9.80
2023-01-05T08:07:41.118Z,9.70
2023-01-05T08:10:26.708Z,9.70
2023-01-05T08:13:11.865Z,9.60
2023-01-05T08:15:38.793Z,9.50
2023-01-05T08:18:05.683Z,9.40
2023-01-05T08:20:32.484Z,9.30
2023-01-05T08:22:59.302Z,9.30
2023-01-05T08:25:26.216Z,9.20
2023-01-05T08:27:53.059Z,9.20
2023-01-05T08:30:19.943Z,9.20
2023-01-05T08:32:46.809Z,9.20
2023-01-05T08:35:13.597Z,9.20
2023-01-05T08:37:40.370Z,9.20
2023-01-05T08:40:09.185Z,9.20
2023-01-05T08:42:35.975Z,9.20
2023-01-05T08:45:03.657Z,9.20
2023-01-05T08:47:30.451Z,9.20
2023-01-05T08:49:57.217Z,9.20
2023-01-05T08:52:24.007Z,9.20
2023-01-05T08:54:50.955Z,9.30
2023-01-05T08:57:17.815Z,9.20
2023-01-05T08:59:44.690Z,9.20
2023-01-05T09:02:20.180Z,9.30
2023-01-05T09:04:52.071Z,9.30
2023-01-05T09:07:18.922Z,9.30
2023-01-05T09:09:45.768Z,9.40
2023-01-05T09:12:12.576Z,9.40
2023-01-05T09:14:39.450Z,9.40
2023-01-05T09:17:07.766Z,9.50
2023-01-05T09:19:35.015Z,9.50
2023-01-05T09:22:01.883Z,9.50
2023-01-05T09:24:28.748Z,9.60
2023-01-05T09:26:56.346Z,9.60
2023-01-05T09:29:23.257Z,9.70
2023-01-05T09:31:50.407Z,9.70
2023-01-05T09:34:19.144Z,9.70
2023-01-05T09:36:46.179Z,9.80
2023-01-05T09:39:13.018Z,9.80
2023-01-05T09:41:50.634Z,9.90
2023-01-05T09:44:36.386Z,9.90
2023-01-05T09:47:05.200Z,9.90
2023-01-05T09:49:35.400Z,10.00
2023-01-05T09:52:09.199Z,10.00
2023-01-05T09:54:37.877Z,10.00
2023-01-05T09:57:09.587Z,10.10
2023-01-05T09:59:45.014Z,10.10
2023-01-05T10:02:21.025Z,10.20
2023-01-05T10:04:48.739Z,10.20
2023-01-05T10:07:30.008Z,10.20
2023-01-05T10:10:02.970Z,10.20
2023-01-05T10:13:00.679Z,10.30
2023-01-05T10:15:28.057Z,10.30
2023-01-05T10:17:55.134Z,10.30
2023-01-05T10:20:40.026Z,10.20
2023-01-05T10:23:22.502Z,10.30
2023-01-05T10:25:58.779Z,10.30
2023-01-05T10:28:50.081Z,10.30
2023-01-05T10:31:52.332Z,10.30
2023-01-05T10:34:19.116Z,10.30
2023-01-05T10:37:08.033Z,10.40
2023-01-05T10:39:39.258Z,10.40
2023-01-05T10:42:23.354Z,10.50
2023-01-05T10:44:50.195Z,10.50
2023-01-05T10:47:17.217Z,10.60
2023-01-05T10:49:46.456Z,10.70
2023-01-05T10:52:16.448Z,10.60
2023-01-05T10:54:51.257Z,10.70
2023-01-05T10:57:35.412Z,10.70
2023-01-05T11:00:09.235Z,10.70
2023-01-05T11:02:39.838Z,10.70
2023-01-05T11:05:31.182Z,10.70
2023-01-05T11:08:22.232Z,10.80
2023-01-05T11:11:07.521Z,10.80
2023-01-05T11:13:48.270Z,10.80
2023-01-05T11:16:20.404Z,10.80
2023-01-05T11:18:53.330Z,10.80
2023-01-05T11:21:21.406Z,10.90
2023-01-05T11:23:55.416Z,10.90
2023-01-05T11:26:37.692Z,10.90
2023-01-05T11:29:11.639Z,11.00
2023-01-05T11:31:59.659Z,11.10
2023-01-05T11:34:41.654Z,11.00
2023-01-05T11:37:27.060Z,11.00
2023-01-05T11:40:01.965Z,10.90
2023-01-05T11:42:34.380Z,10.90
2023-01-05T11:45:14.262Z,10.80
2023-01-05T11:47:45.936Z,10.80
2023-01-05T11:50:27.740Z,10.90
2023-01-05T11:52:59.537Z,10.90
2023-01-05T11:55:33.003Z,10.90
2023-01-05T11:58:24.408Z,10.90
2023-01-05T12:01:13.757Z,11.00
2023-01-05T12:03:59.218Z,11.00
2023-01-05T12:06:49.142Z,10.90
2023-01-05T12:09:55.835Z,10.90
2023-01-05T12:12:32.143Z,11.00
2023-01-05T12:15:04.733Z,11.00
2023-01-05T12:18:03.536Z,11.00
2023-01-05T12:21:06.705Z,10.90
2023-01-05T12:23:59.848Z,10.90
2023-01-05T12:27:05.671Z,10.90
2023-01-05T12:31:02.866Z,10.90
2023-01-05T12:36:08.883Z,11.00
2023-01-05T12:38:53.378Z,11.00
2023-01-05T12:41:35.334Z,10.90
2023-01-05T12:44:30.571Z,11.00
2023-01-05T12:47:21.690Z,11.00
2023-01-05T12:50:18.450Z,11.00
2023-01-05T12:52:49.802Z,10.90
2023-01-05T12:55:33.264Z,11.00
2023-01-05T12:58:18.467Z,11.00
2023-01-05T13:00:47.332Z,11.00
2023-01-05T13:03:28.599Z,11.00
2023-01-05T13:06:06.291Z,11.00
2023-01-05T13:08:51.369Z,10.90
2023-01-05T13:11:38.495Z,10.80
2023-01-05T13:14:19.092Z,10.70
2023-01-05T13:16:58.248Z,10.60
2023-01-05T13:19:38.463Z,10.60
2023-01-05T13:22:14.377Z,10.60
2023-01-05T13:25:21.109Z,10.60
2023-01-05T13:27:47.995Z,10.60
2023-01-05T13:30:37.720Z,10.50
2023-01-05T13:33:04.544Z,10.50
2023-01-05T13:35:34.260Z,10.50
2023-01-05T13:38:33.437Z,10.50
2023-01-05T13:41:10.441Z,10.40
2023-01-05T13:43:43.919Z,10.40
2023-01-05T13:46:35.423Z,10.40
2023-01-05T13:49:15.456Z,10.30
2023-01-05T13:51:58.642Z,10.30
2023-01-05T13:54:49.582Z,10.20
2023-01-05T13:57:28.346Z,10.10
2023-01-05T14:00:06.151Z,10.00
2023-01-05T14:02:46.621Z,10.00
2023-01-05T14:05:37.850Z,9.80
2023-01-05T14:08:14.300Z,9.80
2023-01-05T14:10:41.181Z,9.70
2023-01-05T14:13:48.265Z,9.60
2023-01-05T14:16:34.185Z,9.60
2023-01-05T14:19:21.461Z,9.50
2023-01-05T14:21:51.511Z,9.40
2023-01-05T14:24:47.909Z,9.40
2023-01-05T14:27:23.220Z,9.40
2023-01-05T14:32:38.660Z,9.30
2023-01-05T14:35:11.610Z,9.30
2023-01-05T14:37:41.226Z,9.20
2023-01-05T14:40:34.897Z,9.20
2023-01-05T14:43:05.534Z,9.10
2023-01-05T14:45:36.611Z,9.10
2023-01-05T14:48:26.765Z,9.10
2023-01-05T14:51:10.685Z,9.10
2023-01-05T14:53:41.595Z,9.00
2023-01-05T14:56:08.423Z,9.00
2023-01-05T14:58:38.279Z,9.00
2023-01-05T15:01:25.539Z,9.00
2023-01-05T15:04:11.022Z,9.00
2023-01-05T15:06:56.634Z,8.90
2023-01-05T15:09:32.590Z,9.00
2023-01-05T15:12:06.940Z,8.90
2023-01-05T15:15:11.612Z,8.90
2023-01-05T15:17:53.734Z,8.90
2023-01-05T15:20:36.713Z,8.90
2023-01-05T15:23:25.331Z,8.90
2023-01-05T15:26:22.739Z,8.90
2023-01-05T15:29:10.976Z,8.90
2023-01-05T15:32:08.840Z,8.80
2023-01-05T15:35:03.510Z,8.80
2023-01-05T15:37:31.764Z,8.80
2023-01-05T15:40:04.218Z,8.80
2023-01-05T15:42:46.101Z,8.80
2023-01-05T15:45:24.421Z,8.80
2023-01-05T15:47:52.197Z,8.80
2023-01-05T15:50:25.761Z,8.70
2023-01-05T15:53:01.636Z,8.70
2023-01-05T15:55:30.204Z,8.70
2023-01-05T15:57:59.176Z,8.70
2023-01-05T16:00:30.185Z,8.70
2023-01-05T16:02:57.318Z,8.70
2023-01-05T16:05:26.882Z,8.70
2023-01-05T16:07:58.510Z,8.70
2023-01-05T16:10:43.412Z,8.70
2023-01-05T16:13:53.911Z,8.60
2023-01-05T16:16:49.605Z,8.70
2023-01-05T16:19:17.678Z,8.60
2023-01-05T16:21:52.490Z,8.60
2023-01-05T16:24:28.711Z,8.60
2023-01-05T16:26:56.214Z,8.50
2023-01-05T16:29:34.524Z,8.50
2023-01-05T16:32:01.915Z,8.60
2023-01-05T16:34:31.380Z,8.50
2023-01-05T16:37:08.951Z,8.50
2023-01-05T16:39:39.547Z,8.50
2023-01-05T16:42:38.458Z,8.50
2023-01-05T16:45:09.341Z,8.50
2023-01-05T16:47:41.519Z,8.50
2023-01-05T16:50:20.700Z,8.50
2023-01-05T16:52:58.285Z,8.40
2023-01-05T16:55:38.747Z,8.40
2023-01-05T16:58:31.884Z,8.40
2023-01-05T17:01:13.827Z,8.40
2023-01-05T17:03:42.244Z,8.40
2023-01-05T17:06:29.938Z,8.40
2023-01-05T17:09:01.813Z,8.40
2023-01-05T17:11:35.426Z,8.40
2023-01-05T17:14:03.802Z,8.40
2023-01-05T17:16:31.212Z,8.40
2023-01-05T17:19:00.725Z,8.30
2023-01-05T17:21:32.099Z,8.30
2023-01-05T17:24:00.522Z,8.30
2023-01-05T17:26:32.615Z,8.30
2023-01-05T17:28:59.933Z,8.30
2023-01-05T17:31:27.075Z,8.30
2023-01-05T17:33:53.971Z,8.30
2023-01-05T17:36:26.476Z,8.30
2023-01-05T17:38:53.284Z,8.30
2023-01-05T17:41:20.142Z,8.30
2023-01-05T17:43:47.788Z,8.30
2023-01-05T17:46:18.516Z,8.30
2023-01-05T17:48:45.502Z,8.20
2023-01-05T17:51:12.395Z,8.20
2023-01-05T17:53:40.762Z,8.20
2023-01-05T17:56:07.961Z,8.20
2023-01-05T17:58:34.826Z,8.20
2023-01-05T18:01:01.836Z,8.20
2023-01-05T18:03:28.752Z,8.20
2023-01-05T18:05:55.650Z,8.10
2023-01-05T18:08:22.541Z,8.10
2023-01-05T18:10:49.393Z,8.10
2023-01-05T18:13:19.532Z,8.10
2023-01-05T18:15:52.736Z,8.10
2023-01-05T18:18:21.502Z,8.10
2023-01-05T18:20:51.461Z,8.00
2023-01-05T18:23:20.056Z,8.10
2023-01-05T18:25:47.554Z,8.00
2023-01-05T18:28:14.423Z,8.00
2023-01-05T18:30:42.522Z,7.90
2023-01-05T18:33:09.681Z,7.90
2023-01-05T18:35:43.424Z,7.90
2023-01-05T18:38:10.701Z,7.80
2023-01-05T18:40:37.623Z,7.70
2023-01-05T18:43:04.492Z,7.70
2023-01-05T18:45:38.952Z,7.70
2023-01-05T18:48:06.787Z,7.70
2023-01-05T18:50:33.728Z,7.70
2023-01-05T18:53:00.575Z,7.70
2023-01-05T18:55:27.602Z,7.70
2023-01-05T18:57:54.438Z,7.60
2023-01-05T19:00:21.315Z,7.70
2023-01-05T19:02:49.069Z,7.70
2023-01-05T19:05:15.930Z,7.70
2023-01-05T19:07:42.769Z,7.80
2023-01-05T19:10:09.729Z,7.80
2023-01-05T19:12:36.606Z,7.90
2023-01-05T19:15:03.560Z,7.90
2023-01-05T19:17:33.584Z,8.00
2023-01-05T19:20:00.471Z,8.10
2023-01-05T19:22:27.419Z,8.10
2023-01-05T19:24:54.207Z,8.20
2023-01-05T19:27:21.845Z,8.20
2023-01-05T19:29:48.701Z,8.20
2023-01-05T19:32:15.603Z,8.30
2023-01-05T19:34:42.465Z,8.30
2023-01-05T19:37:09.357Z,8.40
2023-01-05T19:39:36.301Z,8.40
2023-01-05T19:42:03.135Z,8.40
2023-01-05T19:44:29.941Z,8.50
2023-01-05T19:46:56.794Z,8.50
2023-01-05T19:49:25.868Z,8.50
2023-01-05T19:51:53.601Z,8.50
2023-01-05T19:54:22.583Z,8.50
2023-01-05T19:56:49.896Z,8.50
2023-01-05T19:59:21.458Z,8.60
2023-01-05T20:01:48.671Z,8.60
2023-01-05T20:04:15.530Z,8.60
2023-01-05T20:06:44.469Z,8.70
2023-01-05T20:09:18.861Z,8.60
2023-01-05T20:11:48.905Z,8.60
2023-01-05T20:14:32.087Z,8.50
2023-01-05T20:17:06.209Z,8.60
2023-01-05T20:19:34.554Z,8.50
2023-01-05T20:22:03.690Z,8.60
2023-01-05T20:24:32.754Z,8.60
2023-01-05T20:27:02.770Z,8.50
2023-01-05T20:29:30.193Z,8.50
2023-01-05T20:32:03.314Z,8.50
2023-01-05T20:34:32.341Z,8.50
2023-01-05T20:37:01.823Z,8.50
2023-01-05T20:39:28.673Z,8.50
2023-01-05T20:41:55.689Z,8.40
2023-01-05T20:44:25.422Z,8.50
2023-01-05T20:46:53.939Z,8.50
2023-01-05T20:49:22.276Z,8.50
2023-01-05T20:51:49.411Z,8.40
2023-01-05T20:54:16.398Z,8.40
2023-01-05T20:56:43.897Z,8.40
2023-01-05T20:59:20.379Z,8.40
2023-01-05T21:01:47.309Z,8.40
2023-01-05T21:04:14.610Z,8.40
2023-01-05T21:06:42.050Z,8.40
2023-01-05T21:09:09.703Z,8.40
2023-01-05T21:11:37.275Z,8.40
2023-01-05T21:14:06.783Z,8.40
2023-01-05T21:16:36.763Z,8.50
2023-01-05T21:19:04.353Z,8.40
2023-01-05T21:21:32.015Z,8.50
2023-01-05T21:23:59.038Z,8.50
2023-01-05T21:26:26.601Z,8.40
2023-01-05T21:28:54.297Z,8.40
2023-01-05T21:31:24.075Z,8.40
2023-01-05T21:33:51.400Z,8.40
2023-01-05T21:36:24.960Z,8.40
2023-01-05T21:39:00.918Z,8.40
2023-01-05T21:41:48.866Z,8.40
2023-01-05T21:44:16.296Z,8.40
2023-01-05T21:46:43.394Z,8.40
2023-01-05T21:49:11.795Z,8.40
2023-01-05T21:51:57.633Z,8.40
2023-01-05T21:54:42.976Z,8.40
2023-01-05T21:57:10.306Z,8.40
2023-01-05T21:59:37.266Z,8.40
2023-01-05T22:02:04.363Z,8.40
2023-01-05T22:04:31.191Z,8.30
2023-01-05T22:06:58.022Z,8.30
2023-01-05T22:09:24.962Z,8.30
2023-01-05T22:11:51.902Z,8.30
2023-01-05T22:14:18.962Z,8.30
2023-01-05T22:16:45.953Z,8.20
2023-01-05T22:19:12.796Z,8.30
2023-01-05T22:21:39.710Z,8.20
2023-01-05T22:24:07.305Z,8.20
2023-01-05T22:26:34.211Z,8.20
2023-01-05T22:29:01.142Z,8.20
2023-01-05T22:31:29.775Z,8.20
2023-01-05T22:33:59.769Z,8.20
2023-01-05T22:36:29.407Z,8.20
2023-01-05T22:38:57.172Z,8.20
2023-01-05T22:41:26.383Z,8.20
2023-01-05T22:43:53.502Z,8.20
2023-01-05T22:46:24.033Z,8.20
2023-01-05T22:48:53.004Z,8.20
2023-01-05T22:51:25.536Z,8.20
2023-01-05T22:53:52.814Z,8.20
2023-01-05T22:56:21.228Z,8.20
2023-01-05T22:58:48.624Z,8.20
2023-01-05T23:01:22.155Z,8.20
2023-01-05T23:03:49.768Z,8.20
2023-01-05T23:06:17.114Z,8.20
2023-01-05T23:08:44.661Z,8.20
2023-01-05T23:11:23.202Z,8.20
2023-01-05T23:13:50.926Z,8.20
2023-01-05T23:16:18.643Z,8.10
2023-01-05T23:18:45.785Z,8.10
2023-01-05T23:21:14.807Z,8.10
2023-01-05T23:23:41.910Z,8.10
2023-01-05T23:26:10.901Z,8.10
2023-01-05T23:28:38.290Z,8.10
2023-01-05T23:31:05.766Z,8.00
2023-01-05T23:33:35.949Z,8.00
2023-01-05T23:36:03.968Z,8.00
2023-01-05T23:38:31.569Z,8.00
2023-01-05T23:40:59.030Z,7.90
2023-01-05T23:43:27.940Z,7.90
2023-01-05T23:46:04.456Z,7.90
2023-01-05T23:48:31.604Z,7.80
2023-01-05T23:50:58.902Z,7.70
2023-01-05T23:53:26.079Z,7.70
2023-01-05T23:55:53.648Z,7.70
2023-01-05T23:58:20.542Z,7.60
